createdAt,value
2019-06-10T00:00:41.742Z,4.63
2019-06-10T00:03:11.704Z,4.87
2019-06-10T00:05:41.635Z,4.50
2019-06-10T00:08:12.358Z,4.80
2019-06-10T00:10:42.369Z,4.67
2019-06-10T00:13:12.039Z,4.70
2019-06-10T00:15:41.343Z,6.50
2019-06-10T00:18:33.411Z,5.20
2019-06-10T00:20:41.275Z,5.20
2019-06-10T00:23:12.291Z,5.00
2019-06-10T00:25:41.827Z,6.93
2019-06-10T00:28:12.061Z,8.77
2019-06-10T00:30:41.615Z,6.23
2019-06-10T00:33:12.596Z,5.30
2019-06-10T00:35:41.600Z,5.40
2019-06-10T00:38:13.930Z,5.50
2019-06-10T00:40:41.552Z,5.40
2019-06-10T00:43:13.167Z,5.20
2019-06-10T00:45:41.546Z,8.33
2019-06-10T00:48:21.105Z,5.73
2019-06-10T00:50:41.690Z,4.70
2019-06-10T00:53:14.061Z,6.40
2019-06-10T00:55:41.699Z,5.73
2019-06-10T00:58:13.689Z,5.70
2019-06-10T01:00:41.915Z,5.57
2019-06-10T01:03:13.432Z,5.60
2019-06-10T01:05:42.044Z,5.57
2019-06-10T01:08:15.173Z,5.80
2019-06-10T01:10:43.934Z,5.63
2019-06-10T01:13:15.275Z,5.60
2019-06-10T01:15:43.247Z,6.73
2019-06-10T01:18:41.458Z,5.93
2019-06-10T01:20:42.728Z,5.13
2019-06-10T01:23:13.553Z,5.90
2019-06-10T01:25:42.532Z,5.40
2019-06-10T01:28:13.294Z,4.97
2019-06-10T01:30:41.961Z,5.80
2019-06-10T01:33:12.728Z,5.20
2019-06-10T01:35:41.768Z,8.30
2019-06-10T01:38:13.505Z,5.00
2019-06-10T01:40:42.283Z,5.63
2019-06-10T01:43:14.025Z,6.17
2019-06-10T01:45:42.258Z,7.77
2019-06-10T01:48:13.068Z,5.57
2019-06-10T01:50:41.738Z,6.10
2019-06-10T01:53:14.042Z,5.90
2019-06-10T01:55:41.881Z,6.87
2019-06-10T01:58:14.381Z,6.10
2019-06-10T02:01:03.302Z,6.30
2019-06-10T02:03:32.153Z,5.83
2019-06-10T02:06:01.558Z,5.73
2019-06-10T02:08:31.629Z,7.90
2019-06-10T02:11:01.206Z,6.40
2019-06-10T02:13:32.439Z,5.83
2019-06-10T02:16:02.551Z,6.57
2019-06-10T02:18:32.227Z,6.87
2019-06-10T02:21:01.519Z,5.83
2019-06-10T02:23:31.592Z,6.20
2019-06-10T02:26:01.836Z,5.73
2019-06-10T02:28:31.858Z,6.27
2019-06-10T02:31:03.244Z,6.77
2019-06-10T02:33:36.211Z,6.70
2019-06-10T02:36:04.154Z,6.13
2019-06-10T02:38:38.835Z,6.67
2019-06-10T02:41:04.441Z,6.60
2019-06-10T02:43:37.637Z,6.70
2019-06-10T02:46:05.397Z,6.93
2019-06-10T02:48:35.464Z,6.77
2019-06-10T02:51:06.386Z,6.83
2019-06-10T02:53:37.044Z,6.80
2019-06-10T02:56:08.219Z,5.77
2019-06-10T02:58:39.405Z,6.87
2019-06-10T03:01:08.081Z,6.63
2019-06-10T03:03:43.858Z,7.20
2019-06-10T03:06:08.783Z,7.63
2019-06-10T03:08:38.134Z,6.77
2019-06-10T03:11:06.983Z,7.80
2019-06-10T03:13:35.886Z,8.67
2019-06-10T03:16:32.759Z,8.03
2019-06-10T03:19:02.787Z,7.73
2019-06-10T03:21:32.307Z,8.03
2019-06-10T03:24:02.662Z,7.33
2019-06-10T03:26:32.276Z,7.70
2019-06-10T03:29:02.730Z,8.50
2019-06-10T03:31:40.439Z,7.10
2019-06-10T03:34:05.098Z,6.80
2019-06-10T03:36:33.186Z,6.97
2019-06-10T03:39:02.765Z,6.70
2019-06-10T03:41:32.376Z,6.50
2019-06-10T03:44:02.631Z,7.27
2019-06-10T03:46:32.886Z,7.47
2019-06-10T03:49:03.147Z,7.63
2019-06-10T03:51:33.366Z,7.33
2019-06-10T03:54:02.576Z,7.83
2019-06-10T03:56:32.269Z,6.77
2019-06-10T03:59:02.816Z,7.33
2019-06-10T04:01:33.333Z,6.50
2019-06-10T04:04:02.432Z,7.03
2019-06-10T04:06:33.606Z,6.13
2019-06-10T04:09:02.815Z,7.10
2019-06-10T04:11:35.255Z,7.17
2019-06-10T04:14:02.428Z,7.07
2019-06-10T04:16:32.721Z,7.13
2019-06-10T04:19:02.562Z,6.93
2019-06-10T04:21:32.658Z,7.03
2019-06-10T04:24:02.319Z,7.50
2019-06-10T04:26:32.710Z,6.53
2019-06-10T04:29:02.645Z,6.73
2019-06-10T04:31:32.980Z,7.13
2019-06-10T04:34:03.243Z,6.70
2019-06-10T04:36:33.320Z,7.87
2019-06-10T04:39:03.238Z,7.03
2019-06-10T04:41:33.763Z,7.30
2019-06-10T04:44:02.915Z,6.63
2019-06-10T04:46:32.528Z,6.50
2019-06-10T04:49:02.774Z,7.40
2019-06-10T04:51:32.923Z,6.90
2019-06-10T04:54:02.962Z,7.53
2019-06-10T04:56:33.470Z,7.47
2019-06-10T04:59:03.133Z,7.30
2019-06-10T05:01:33.591Z,6.80
2019-06-10T05:04:03.154Z,6.20
2019-06-10T05:06:32.829Z,7.70
2019-06-10T05:09:04.030Z,7.23
2019-06-10T05:11:33.112Z,5.93
2019-06-10T05:14:02.897Z,7.03
2019-06-10T05:16:34.925Z,7.37
2019-06-10T05:19:03.868Z,6.90
2019-06-10T05:21:33.789Z,7.13
2019-06-10T05:24:03.004Z,6.80
2019-06-10T05:26:33.591Z,6.63
2019-06-10T05:29:03.216Z,6.47
2019-06-10T05:31:35.144Z,7.10
2019-06-10T05:34:02.674Z,7.20
2019-06-10T05:36:34.778Z,6.37
2019-06-10T05:39:02.728Z,7.80
2019-06-10T05:41:35.133Z,7.37
2019-06-10T05:44:02.976Z,7.17
2019-06-10T05:46:34.700Z,7.63
2019-06-10T05:49:03.074Z,6.53
2019-06-10T05:51:35.102Z,7.47
2019-06-10T05:54:02.667Z,7.47
2019-06-10T05:56:33.821Z,7.50
2019-06-10T05:59:04.334Z,7.80
2019-06-10T06:01:37.946Z,7.40
2019-06-10T06:04:03.361Z,7.77
2019-06-10T06:06:34.056Z,7.57
2019-06-10T06:09:03.240Z,7.77
2019-06-10T06:11:34.017Z,7.93
2019-06-10T06:14:02.860Z,7.47
2019-06-10T06:16:33.082Z,7.73
2019-06-10T06:19:03.303Z,7.73
2019-06-10T06:21:40.306Z,8.17
2019-06-10T06:24:03.904Z,7.83
2019-06-10T06:26:37.820Z,7.83
2019-06-10T06:29:04.103Z,7.87
2019-06-10T06:31:33.417Z,7.20
2019-06-10T06:34:03.312Z,7.00
2019-06-10T06:36:34.703Z,7.13
2019-06-10T06:39:04.835Z,8.20
2019-06-10T06:41:34.551Z,7.63
2019-06-10T06:44:04.330Z,8.37
2019-06-10T06:46:37.534Z,7.97
2019-06-10T06:49:03.851Z,8.17
2019-06-10T06:51:46.567Z,8.17
2019-06-10T06:54:03.454Z,7.33
2019-06-10T06:56:35.642Z,7.10
2019-06-10T06:59:03.063Z,7.40
2019-06-10T07:01:34.672Z,8.70
2019-06-10T07:04:02.776Z,7.77
2019-06-10T07:06:34.136Z,8.50
2019-06-10T07:09:08.055Z,8.17
2019-06-10T07:11:38.594Z,9.30
2019-06-10T07:14:10.034Z,9.43
2019-06-10T07:16:39.643Z,8.50
2019-06-10T07:19:08.744Z,7.70
2019-06-10T07:21:58.235Z,7.23
2019-06-10T07:24:08.040Z,8.30
2019-06-10T07:26:42.126Z,8.57
2019-06-10T07:29:07.221Z,8.40
2019-06-10T07:31:37.007Z,8.10
2019-06-10T07:34:06.835Z,7.47
2019-06-10T07:36:36.832Z,7.50
2019-06-10T07:39:07.125Z,7.60
2019-06-10T07:41:37.450Z,7.57
2019-06-10T07:44:06.927Z,7.63
2019-06-10T07:46:36.657Z,8.37
2019-06-10T07:49:06.219Z,7.80
2019-06-10T07:51:35.853Z,7.67
2019-06-10T07:54:05.420Z,9.00
2019-06-10T07:56:38.887Z,7.50
2019-06-10T07:59:04.809Z,7.97
2019-06-10T08:01:35.108Z,7.20
2019-06-10T08:04:05.203Z,7.40
2019-06-10T08:06:35.158Z,7.30
2019-06-10T08:09:06.280Z,8.10
2019-06-10T08:11:35.409Z,8.33
2019-06-10T08:14:04.781Z,8.60
2019-06-10T08:16:35.690Z,7.60
2019-06-10T08:19:26.018Z,8.43
2019-06-10T08:21:37.165Z,8.47
2019-06-10T08:24:06.033Z,7.67
2019-06-10T08:26:35.412Z,7.73
2019-06-10T08:29:04.610Z,9.03
2019-06-10T08:31:33.488Z,8.37
2019-06-10T08:34:03.171Z,7.90
2019-06-10T08:36:33.302Z,8.60
2019-06-10T08:39:03.268Z,8.03
2019-06-10T08:41:32.400Z,8.33
2019-06-10T08:44:02.332Z,9.23
2019-06-10T08:46:32.914Z,9.80
2019-06-10T08:49:03.210Z,7.57
2019-06-10T08:51:32.586Z,8.97
2019-06-10T08:54:02.305Z,7.90
2019-06-10T08:56:32.827Z,9.27
2019-06-10T08:59:03.295Z,8.30
2019-06-10T09:01:33.458Z,8.43
2019-06-10T09:04:03.169Z,8.60
2019-06-10T09:06:32.967Z,7.97
2019-06-10T09:09:03.236Z,8.80
2019-06-10T09:11:32.933Z,9.10
2019-06-10T09:14:03.479Z,9.67
2019-06-10T09:16:33.042Z,8.53
2019-06-10T09:19:02.229Z,9.77
2019-06-10T09:21:33.019Z,9.20
2019-06-10T09:24:04.124Z,9.50
2019-06-10T09:26:33.879Z,9.00
2019-06-10T09:29:03.081Z,8.70
2019-06-10T09:31:33.175Z,8.53
2019-06-10T09:34:03.947Z,7.73
2019-06-10T09:36:32.636Z,9.40
2019-06-10T09:39:03.917Z,9.07
2019-06-10T09:41:40.136Z,9.73
2019-06-10T09:44:03.223Z,9.67
2019-06-10T09:46:34.427Z,9.30
2019-06-10T09:49:06.133Z,9.17
2019-06-10T09:51:35.200Z,9.10
2019-06-10T09:54:06.761Z,10.43
2019-06-10T09:56:34.858Z,9.20
2019-06-10T09:59:05.557Z,9.43
2019-06-10T10:01:50.287Z,8.70
2019-06-10T10:04:15.971Z,13.20
2019-06-10T10:06:48.941Z,9.07
2019-06-10T10:09:15.516Z,9.57
2019-06-10T10:11:46.207Z,9.03
2019-06-10T10:14:15.905Z,9.60
2019-06-10T10:16:49.379Z,9.27
2019-06-10T10:19:15.489Z,8.03
2019-06-10T10:21:47.710Z,9.03
2019-06-10T10:24:15.309Z,9.03
2019-06-10T10:26:48.369Z,9.57
2019-06-10T10:29:14.939Z,9.37
2019-06-10T10:31:47.484Z,9.20
2019-06-10T10:34:14.905Z,10.00
2019-06-10T10:36:46.400Z,10.00
2019-06-10T10:39:14.619Z,10.53
2019-06-10T10:41:45.164Z,8.57
2019-06-10T10:44:14.833Z,9.20
2019-06-10T10:46:44.226Z,9.07
2019-06-10T10:49:14.404Z,8.53
2019-06-10T10:51:44.839Z,8.93
2019-06-10T10:54:28.704Z,10.03
2019-06-10T10:56:46.230Z,9.43
2019-06-10T10:59:14.676Z,10.43
2019-06-10T11:01:44.453Z,8.57
2019-06-10T11:04:14.910Z,9.00
2019-06-10T11:06:44.548Z,9.60
2019-06-10T11:09:19.205Z,9.33
2019-06-10T11:11:49.286Z,10.20
2019-06-10T11:14:18.452Z,9.53
2019-06-10T11:16:47.630Z,9.07
2019-06-10T11:19:16.805Z,8.47
2019-06-10T11:21:45.879Z,10.47
2019-06-10T11:24:31.919Z,9.70
2019-06-10T11:26:45.810Z,9.73
2019-06-10T11:29:14.655Z,8.67
2019-06-10T11:31:43.443Z,9.70
2019-06-10T11:34:12.507Z,9.47
2019-06-10T11:36:42.409Z,9.23
2019-06-10T11:39:13.363Z,9.87
2019-06-10T11:41:43.086Z,8.93
2019-06-10T11:44:13.051Z,9.20
2019-06-10T11:46:43.090Z,9.40
2019-06-10T11:49:12.550Z,8.70
2019-06-10T11:51:41.508Z,9.23
2019-06-10T11:54:12.658Z,9.10
2019-06-10T11:56:42.186Z,7.80
2019-06-10T11:59:13.459Z,9.60
2019-06-10T12:01:44.793Z,9.70
2019-06-10T12:04:13.661Z,9.47
2019-06-10T12:06:42.778Z,8.80
2019-06-10T12:09:13.800Z,8.73
2019-06-10T12:11:43.761Z,8.27
2019-06-10T12:14:13.096Z,9.07
2019-06-10T12:19:12.960Z,9.33
2019-06-10T12:21:43.452Z,8.27
2019-06-10T12:24:12.852Z,9.80
2019-06-10T12:26:43.465Z,8.70
2019-06-10T12:29:12.937Z,8.90
2019-06-10T12:31:42.862Z,9.43
2019-06-10T12:34:12.513Z,9.10
2019-06-10T12:36:41.573Z,9.30
2019-06-10T12:39:15.142Z,10.40
2019-06-10T12:41:42.935Z,9.43
2019-06-10T12:44:12.987Z,9.17
2019-06-10T12:46:43.209Z,10.20
2019-06-10T12:49:13.134Z,9.17
2019-06-10T12:51:43.000Z,10.27
2019-06-10T12:54:13.155Z,8.80
2019-06-10T12:56:42.930Z,9.83
2019-06-10T12:59:13.581Z,9.37
2019-06-10T13:01:44.675Z,8.60
2019-06-10T13:04:13.912Z,8.97
2019-06-10T13:06:45.864Z,8.93
2019-06-10T13:09:14.972Z,8.57
2019-06-10T13:11:43.730Z,9.33
2019-06-10T13:14:12.996Z,8.87
2019-06-10T13:16:43.299Z,7.93
2019-06-10T13:19:13.192Z,8.10
2019-06-10T13:21:42.673Z,8.57
2019-06-10T13:24:13.190Z,9.27
2019-06-10T13:26:43.191Z,8.97
2019-06-10T13:29:16.920Z,8.73
2019-06-10T13:31:43.494Z,9.17
2019-06-10T13:34:14.730Z,9.23
2019-06-10T13:36:43.207Z,8.50
2019-06-10T13:39:13.465Z,7.53
2019-06-10T13:41:43.766Z,8.30
2019-06-10T13:44:16.530Z,8.23
2019-06-10T13:46:44.344Z,7.53
2019-06-10T13:49:15.373Z,8.33
2019-06-10T13:51:44.086Z,9.23
2019-06-10T13:54:13.995Z,8.33
2019-06-10T13:56:47.483Z,8.50
2019-06-10T13:59:14.249Z,8.37
2019-06-10T14:01:43.557Z,8.20
2019-06-10T14:04:21.249Z,8.77
2019-06-10T14:06:49.543Z,7.10
2019-06-10T14:09:16.852Z,7.80
2019-06-10T14:11:45.739Z,7.23
2019-06-10T14:14:17.875Z,7.60
2019-06-10T14:16:45.228Z,7.17
2019-06-10T14:19:16.351Z,7.40
2019-06-10T14:21:44.838Z,7.93
2019-06-10T14:24:16.170Z,6.93
2019-06-10T14:26:45.645Z,7.10
2019-06-10T14:29:15.961Z,7.23
2019-06-10T14:31:47.846Z,6.53
2019-06-10T14:34:17.992Z,7.40
2019-06-10T14:36:46.685Z,7.63
2019-06-10T14:39:16.046Z,6.50
2019-06-10T14:41:44.975Z,6.87
2019-06-10T14:44:17.237Z,6.13
2019-06-10T14:46:44.402Z,7.10
2019-06-10T14:49:15.329Z,6.87
2019-06-10T14:51:43.859Z,7.07
2019-06-10T14:54:17.545Z,7.93
2019-06-10T14:56:52.870Z,8.03
2019-06-10T14:59:17.874Z,7.93
2019-06-10T15:01:45.880Z,8.30
2019-06-10T15:04:18.289Z,8.57
2019-06-10T15:06:48.316Z,8.00
2019-06-10T15:09:22.778Z,8.10
2019-06-10T15:11:53.127Z,7.10
2019-06-10T15:14:23.310Z,7.90
2019-06-10T15:16:53.361Z,10.03
2019-06-10T15:19:28.316Z,7.70
2019-06-10T15:21:53.083Z,7.90
2019-06-10T15:24:23.701Z,7.90
2019-06-10T15:27:08.721Z,7.53
2019-06-10T15:29:26.725Z,7.83
2019-06-10T15:32:09.258Z,8.20
2019-06-10T15:34:26.381Z,7.60
2019-06-10T15:36:58.260Z,8.33
2019-06-10T15:39:27.361Z,8.30
2019-06-10T15:41:57.119Z,8.60
2019-06-10T15:44:47.894Z,9.77
2019-06-10T15:47:03.067Z,8.67
2019-06-10T15:49:34.781Z,8.80
2019-06-10T15:52:06.861Z,9.80
2019-06-10T15:54:35.833Z,8.03
2019-06-10T15:57:04.642Z,7.43
2019-06-10T15:59:33.376Z,6.90
2019-06-10T16:02:02.586Z,9.27
2019-06-10T16:04:35.108Z,7.80
2019-06-10T16:07:02.582Z,8.87
2019-06-10T16:09:32.139Z,7.87
2019-06-10T16:12:02.920Z,6.63
2019-06-10T16:14:36.853Z,8.53
2019-06-10T16:17:05.643Z,8.23
2019-06-10T16:19:34.362Z,8.03
2019-06-10T16:22:04.448Z,8.90
2019-06-10T16:24:33.425Z,7.70
2019-06-10T16:27:03.362Z,8.87
2019-06-10T16:29:33.339Z,6.70
2019-06-10T16:32:02.775Z,7.83
2019-06-10T16:34:32.522Z,11.50
2019-06-10T16:37:02.439Z,6.47
2019-06-10T16:39:32.570Z,9.40
2019-06-10T16:42:03.091Z,6.97
2019-06-10T16:44:32.958Z,7.10
2019-06-10T16:47:03.288Z,7.03
2019-06-10T16:49:34.390Z,8.83
2019-06-10T16:52:03.327Z,7.17
2019-06-10T16:54:33.001Z,7.07
2019-06-10T16:57:03.890Z,6.40
2019-06-10T16:59:35.671Z,5.60
2019-06-10T17:02:04.548Z,5.53
2019-06-10T17:04:33.399Z,9.20
2019-06-10T17:07:05.609Z,9.93
2019-06-10T17:09:34.446Z,6.53
2019-06-10T17:12:07.104Z,9.70
2019-06-10T17:14:36.074Z,8.10
2019-06-10T17:17:05.072Z,9.00
2019-06-10T17:19:34.286Z,6.70
2019-06-10T17:22:03.129Z,6.37
2019-06-10T17:24:33.818Z,6.90
2019-06-10T17:27:02.800Z,7.10
2019-06-10T17:29:33.449Z,6.67
2019-06-10T17:32:02.912Z,5.70
2019-06-10T17:34:33.838Z,9.13
2019-06-10T17:37:03.150Z,6.70
2019-06-10T17:39:34.440Z,6.67
2019-06-10T17:42:02.651Z,6.47
2019-06-10T17:44:32.478Z,7.77
2019-06-10T17:47:02.253Z,6.93
2019-06-10T17:49:34.370Z,8.03
2019-06-10T17:52:02.556Z,6.90
2019-06-10T17:54:32.449Z,9.90
2019-06-10T17:57:02.371Z,7.73
2019-06-10T17:59:33.624Z,11.83
2019-06-10T18:02:03.013Z,10.10
2019-06-10T18:04:33.582Z,6.23
2019-06-10T18:07:02.462Z,7.17
2019-06-10T18:09:34.707Z,7.90
2019-06-10T18:12:02.444Z,10.13
2019-06-10T18:14:34.281Z,6.40
2019-06-10T18:17:02.162Z,6.20
2019-06-10T18:19:34.202Z,7.27
2019-06-10T18:22:03.053Z,7.13
2019-06-10T18:24:32.978Z,7.70
2019-06-10T18:27:02.347Z,7.43
2019-06-10T18:29:33.763Z,6.40
2019-06-10T18:32:03.443Z,8.70
2019-06-10T18:34:36.019Z,7.47
2019-06-10T18:37:03.351Z,7.57
2019-06-10T18:39:32.101Z,7.73
2019-06-10T18:42:03.360Z,7.57
2019-06-10T18:44:33.929Z,6.90
2019-06-10T18:47:02.999Z,7.83
2019-06-10T18:49:34.036Z,7.77
2019-06-10T18:52:02.629Z,7.67
2019-06-10T18:54:33.855Z,7.40
2019-06-10T18:57:02.971Z,7.90
2019-06-10T18:59:33.218Z,7.90
2019-06-10T19:02:06.236Z,7.67
2019-06-10T19:04:35.263Z,7.80
2019-06-10T19:07:03.944Z,8.50
2019-06-10T19:09:35.912Z,9.77
2019-06-10T19:12:04.033Z,9.57
2019-06-10T19:14:34.860Z,8.50
2019-06-10T19:17:03.664Z,8.10
2019-06-10T19:19:33.881Z,8.20
2019-06-10T19:22:08.874Z,8.70
2019-06-10T19:24:36.284Z,8.37
2019-06-10T19:27:05.442Z,9.40
2019-06-10T19:29:42.206Z,11.33
2019-06-10T19:32:05.124Z,9.37
2019-06-10T19:34:35.318Z,9.10
2019-06-10T19:37:04.276Z,9.23
2019-06-10T19:39:38.297Z,8.40
2019-06-10T19:42:03.587Z,9.73
2019-06-10T19:44:34.047Z,9.10
2019-06-10T19:47:03.529Z,8.67
2019-06-10T19:49:33.815Z,9.90
2019-06-10T19:52:03.301Z,8.90
2019-06-10T19:54:33.442Z,9.73
2019-06-10T19:57:02.800Z,9.87
2019-06-10T19:59:50.359Z,9.97
2019-06-10T20:02:03.416Z,10.17
2019-06-10T20:04:33.399Z,9.57
2019-06-10T20:07:02.905Z,11.10
2019-06-10T20:09:32.903Z,10.50
2019-06-10T20:12:02.459Z,9.90
2019-06-10T20:14:32.237Z,11.37
2019-06-10T20:17:03.121Z,10.90
2019-06-10T20:19:32.669Z,10.60
2019-06-10T20:22:02.078Z,11.97
2019-06-10T20:24:31.127Z,11.87
2019-06-10T20:27:00.208Z,11.87
2019-06-10T20:29:28.967Z,11.30
2019-06-10T20:31:57.707Z,13.03
2019-06-10T20:34:26.565Z,12.20
2019-06-10T20:36:55.661Z,12.43
2019-06-10T20:39:24.991Z,11.23
2019-06-10T20:41:55.694Z,9.47
2019-06-10T20:44:24.773Z,11.00
2019-06-10T20:46:53.515Z,9.40
2019-06-10T20:49:22.588Z,10.60
2019-06-10T20:52:06.668Z,10.70
2019-06-10T20:54:23.173Z,9.63
2019-06-10T20:56:53.428Z,9.30
2019-06-10T20:59:25.629Z,9.00
2019-06-10T21:01:53.770Z,13.10
2019-06-10T21:04:22.679Z,10.80
2019-06-10T21:06:53.243Z,11.73
2019-06-10T21:09:22.983Z,12.27
2019-06-10T21:11:54.383Z,13.37
2019-06-10T21:14:23.128Z,18.70
2019-06-10T21:16:53.536Z,10.13
2019-06-10T21:19:23.309Z,13.90
2019-06-10T21:21:54.773Z,13.40
2019-06-10T21:24:23.360Z,14.23
2019-06-10T21:26:54.740Z,14.20
2019-06-10T21:29:22.652Z,15.13
2019-06-10T21:31:54.503Z,14.63
2019-06-10T21:34:22.492Z,12.77
2019-06-10T21:36:54.014Z,15.53
2019-06-10T21:39:22.060Z,18.33
2019-06-10T21:41:54.180Z,18.60
2019-06-10T21:44:23.184Z,15.93
2019-06-10T21:46:52.349Z,15.70
2019-06-10T21:49:23.681Z,15.70
2019-06-10T21:51:55.510Z,13.37
2019-06-10T21:54:22.786Z,12.60
2019-06-10T21:56:55.187Z,15.17
2019-06-10T21:59:22.281Z,11.00
2019-06-10T22:01:51.265Z,9.70
2019-06-10T22:04:22.345Z,9.80
2019-06-10T22:06:52.916Z,14.60
2019-06-10T22:09:21.300Z,14.33
2019-06-10T22:11:52.143Z,12.27
2019-06-10T22:14:22.438Z,13.20
2019-06-10T22:16:52.913Z,17.97
2019-06-10T22:19:23.150Z,11.63
2019-06-10T22:21:53.611Z,9.77
2019-06-10T22:24:22.961Z,11.17
2019-06-10T22:26:53.086Z,12.10
2019-06-10T22:29:23.079Z,11.73
2019-06-10T22:31:53.965Z,14.10
2019-06-10T22:34:22.833Z,14.53
2019-06-10T22:36:53.826Z,9.60
2019-06-10T22:39:22.512Z,8.67
2019-06-10T22:41:53.675Z,13.67
2019-06-10T22:44:24.184Z,14.10
2019-06-10T22:46:55.176Z,13.27
2019-06-10T22:49:23.666Z,11.13
2019-06-10T22:51:54.515Z,13.20
2019-06-10T22:54:23.522Z,11.77
2019-06-10T22:56:54.817Z,15.50
2019-06-10T22:59:22.994Z,13.00
2019-06-10T23:01:53.806Z,15.03
2019-06-10T23:04:22.465Z,15.70
2019-06-10T23:06:53.362Z,12.50
2019-06-10T23:09:22.282Z,13.60
2019-06-10T23:11:53.497Z,12.20
2019-06-10T23:14:22.769Z,17.63
2019-06-10T23:16:54.574Z,10.50
2019-06-10T23:19:23.405Z,10.57
2019-06-10T23:21:54.255Z,7.50
2019-06-10T23:24:23.212Z,12.27
2019-06-10T23:26:51.958Z,10.53
2019-06-10T23:29:22.761Z,7.67
2019-06-10T23:31:56.314Z,11.73
2019-06-10T23:34:23.246Z,10.50
2019-06-10T23:36:54.858Z,19.13
2019-06-10T23:39:22.757Z,11.40
2019-06-10T23:41:53.637Z,9.17
2019-06-10T23:44:22.894Z,10.33
2019-06-10T23:46:53.113Z,11.13
2019-06-10T23:49:22.791Z,13.10
2019-06-10T23:51:54.111Z,9.80
2019-06-10T23:54:22.941Z,14.97
2019-06-10T23:56:52.757Z,16.03
2019-06-10T23:59:22.624Z,15.80
